BVX323B EDDH-EGLL
Flight info
| Callsign | BVX323B |
|---|---|
| Flight time | 1h 8m |
| Altitude | 40000 |
| Route | WSN5G WSN N125 ITMIZ DCT ABNED L980 LOGAN |
| Aircraft | A359/H-SDE2E3GHIJ3J4J5LM1ORWXY/LB1D1 |
Departure
| Time | 2026-05-07 01:06 |
|---|---|
| Airport | Hamburg Helmut Schmidt Airport (EDDH) |
Arrival
| Time | 2026-05-07 02:14 |
|---|---|
| Airport | London Heathrow Airport (EGLL) |
| Time | Latitude | Longitude | Altitude | Speed | Heading |
|---|---|---|---|---|---|
| 2026-05-07 01:04 | 53.62014 | 9.96751 | 25 ft | 0 kts | 50° |
| 2026-05-07 01:05 | 53.62052 | 9.96829 | 49 ft | 26 kts | 50° |
| 2026-05-07 01:06 | 53.62321 | 9.97374 | 47 ft | 92 kts | 50° |
| 2026-05-07 01:06 | 53.62853 | 9.98447 | 51 ft | 147 kts | 50° |
| 2026-05-07 01:06 | 53.63525 | 9.99804 | 645 ft | 147 kts | 50° |
| 2026-05-07 01:06 | 53.64173 | 10.01109 | 1336 ft | 143 kts | 52° |
| 2026-05-07 01:07 | 53.64808 | 10.02391 | 1929 ft | 143 kts | 54° |
| 2026-05-07 01:07 | 53.65449 | 10.03702 | 2457 ft | 146 kts | 54° |
| 2026-05-07 01:07 | 53.66104 | 10.05045 | 2955 ft | 150 kts | 53° |
| 2026-05-07 01:07 | 53.66788 | 10.06447 | 3329 ft | 163 kts | 53° |
| 2026-05-07 01:08 | 53.67555 | 10.08020 | 3616 ft | 183 kts | 53° |
| 2026-05-07 01:08 | 53.68416 | 10.09755 | 3974 ft | 201 kts | 49° |
| 2026-05-07 01:08 | 53.69591 | 10.11113 | 4402 ft | 212 kts | 19° |
| 2026-05-07 01:08 | 53.71049 | 10.11006 | 4835 ft | 226 kts | 340° |
| 2026-05-07 01:09 | 53.72284 | 10.09186 | 5169 ft | 253 kts | 302° |
| 2026-05-07 01:09 | 53.73043 | 10.06417 | 5701 ft | 265 kts | 295° |
| 2026-05-07 01:09 | 53.73803 | 10.03542 | 6482 ft | 268 kts | 297° |
| 2026-05-07 01:09 | 53.74580 | 10.00652 | 7259 ft | 272 kts | 294° |
| 2026-05-07 01:10 | 53.75044 | 9.97567 | 8019 ft | 278 kts | 277° |
| 2026-05-07 01:10 | 53.74831 | 9.94310 | 8816 ft | 283 kts | 250° |
| 2026-05-07 01:10 | 53.73938 | 9.91340 | 9756 ft | 284 kts | 240° |
| 2026-05-07 01:10 | 53.72897 | 9.88466 | 10423 ft | 293 kts | 239° |
| 2026-05-07 01:11 | 53.71780 | 9.85445 | 10792 ft | 312 kts | 239° |
| 2026-05-07 01:11 | 53.70592 | 9.82239 | 11173 ft | 330 kts | 238° |
| 2026-05-07 01:11 | 53.69344 | 9.78882 | 11584 ft | 345 kts | 238° |
| 2026-05-07 01:11 | 53.68051 | 9.75410 | 12239 ft | 352 kts | 239° |
| 2026-05-07 01:12 | 53.66735 | 9.71881 | 12978 ft | 357 kts | 238° |
| 2026-05-07 01:12 | 53.65424 | 9.68369 | 13737 ft | 360 kts | 238° |
| 2026-05-07 01:12 | 53.64077 | 9.64767 | 14405 ft | 364 kts | 238° |
| 2026-05-07 01:12 | 53.62715 | 9.61129 | 15068 ft | 367 kts | 238° |
| 2026-05-07 01:13 | 53.61343 | 9.57470 | 15807 ft | 368 kts | 238° |
| 2026-05-07 01:13 | 53.59988 | 9.53861 | 16509 ft | 370 kts | 238° |
| 2026-05-07 01:13 | 53.58603 | 9.50177 | 17162 ft | 374 kts | 238° |
| 2026-05-07 01:13 | 53.57200 | 9.46450 | 17821 ft | 378 kts | 238° |
| 2026-05-07 01:14 | 53.55767 | 9.42652 | 18500 ft | 381 kts | 238° |
| 2026-05-07 01:14 | 53.54361 | 9.38928 | 19145 ft | 383 kts | 238° |
| 2026-05-07 01:14 | 53.52926 | 9.35135 | 19806 ft | 386 kts | 237° |
| 2026-05-07 01:14 | 53.51480 | 9.31317 | 20442 ft | 389 kts | 238° |
| 2026-05-07 01:15 | 53.50019 | 9.27466 | 21061 ft | 392 kts | 238° |
| 2026-05-07 01:15 | 53.48547 | 9.23591 | 21693 ft | 395 kts | 237° |
| 2026-05-07 01:15 | 53.47060 | 9.19684 | 22336 ft | 397 kts | 237° |
| 2026-05-07 01:15 | 53.45567 | 9.15768 | 22960 ft | 400 kts | 237° |
| 2026-05-07 01:16 | 53.44054 | 9.11804 | 23579 ft | 403 kts | 237° |
| 2026-05-07 01:16 | 53.42535 | 9.07832 | 24089 ft | 406 kts | 237° |
| 2026-05-07 01:16 | 53.41003 | 9.03830 | 24583 ft | 409 kts | 237° |
| 2026-05-07 01:16 | 53.39456 | 8.99798 | 25063 ft | 413 kts | 237° |
| 2026-05-07 01:17 | 53.37894 | 8.95731 | 25499 ft | 417 kts | 237° |
| 2026-05-07 01:17 | 53.36487 | 8.92074 | 25935 ft | 420 kts | 237° |
| 2026-05-07 01:17 | 53.34977 | 8.87886 | 26427 ft | 423 kts | 242° |
| 2026-05-07 01:17 | 53.33773 | 8.83435 | 26900 ft | 426 kts | 247° |
| 2026-05-07 01:18 | 53.32689 | 8.78810 | 27387 ft | 429 kts | 249° |
| 2026-05-07 01:18 | 53.31814 | 8.74827 | 27797 ft | 431 kts | 249° |
| 2026-05-07 01:18 | 53.30795 | 8.70082 | 28313 ft | 433 kts | 250° |
| 2026-05-07 01:18 | 53.29775 | 8.65328 | 28793 ft | 435 kts | 250° |
| 2026-05-07 01:19 | 53.28741 | 8.60543 | 29241 ft | 438 kts | 250° |
| 2026-05-07 01:19 | 53.27701 | 8.55735 | 29666 ft | 441 kts | 250° |
| 2026-05-07 01:19 | 53.26650 | 8.50891 | 29922 ft | 445 kts | 250° |
| 2026-05-07 01:20 | 53.24661 | 8.41102 | 29959 ft | 445 kts | 252° |
| 2026-05-07 01:20 | 53.22855 | 8.31197 | 30235 ft | 448 kts | 253° |
| 2026-05-07 01:20 | 53.21954 | 8.26269 | 30601 ft | 450 kts | 252° |
| 2026-05-07 01:21 | 53.21026 | 8.21273 | 30944 ft | 452 kts | 252° |
| 2026-05-07 01:21 | 53.20080 | 8.16245 | 31276 ft | 454 kts | 252° |
| 2026-05-07 01:21 | 53.19121 | 8.11202 | 31609 ft | 457 kts | 252° |
| 2026-05-07 01:21 | 53.18164 | 8.06134 | 31895 ft | 459 kts | 252° |
| 2026-05-07 01:22 | 53.17214 | 8.01096 | 32169 ft | 462 kts | 252° |
| 2026-05-07 01:22 | 53.16233 | 7.95909 | 32446 ft | 465 kts | 252° |
| 2026-05-07 01:22 | 53.15258 | 7.90764 | 32715 ft | 467 kts | 252° |
| 2026-05-07 01:22 | 53.14286 | 7.85648 | 32975 ft | 469 kts | 252° |
| 2026-05-07 01:23 | 53.13298 | 7.80463 | 33294 ft | 470 kts | 252° |
| 2026-05-07 01:23 | 53.12306 | 7.75275 | 33681 ft | 469 kts | 252° |
| 2026-05-07 01:23 | 53.11316 | 7.70111 | 34024 ft | 469 kts | 252° |
| 2026-05-07 01:23 | 53.10216 | 7.64988 | 34300 ft | 469 kts | 248° |
| 2026-05-07 01:24 | 53.08986 | 7.59958 | 34636 ft | 467 kts | 248° |
| 2026-05-07 01:24 | 53.07737 | 7.54975 | 34944 ft | 466 kts | 247° |
| 2026-05-07 01:24 | 53.06898 | 7.51669 | 35113 ft | 467 kts | 247° |
| 2026-05-07 01:24 | 53.05628 | 7.46705 | 35364 ft | 467 kts | 247° |
| 2026-05-07 01:25 | 53.03935 | 7.40123 | 35690 ft | 467 kts | 247° |
| 2026-05-07 01:25 | 53.03069 | 7.36759 | 35845 ft | 467 kts | 247° |
| 2026-05-07 01:25 | 53.01807 | 7.31863 | 36068 ft | 468 kts | 247° |
| 2026-05-07 01:25 | 53.00523 | 7.26887 | 36214 ft | 470 kts | 247° |
| 2026-05-07 01:26 | 52.99232 | 7.21890 | 36435 ft | 470 kts | 246° |
| 2026-05-07 01:26 | 52.97943 | 7.16909 | 36695 ft | 470 kts | 246° |
| 2026-05-07 01:26 | 52.96653 | 7.11935 | 36908 ft | 469 kts | 246° |
| 2026-05-07 01:26 | 52.95361 | 7.06964 | 37174 ft | 469 kts | 246° |
| 2026-05-07 01:27 | 52.94067 | 7.01991 | 37425 ft | 469 kts | 246° |
| 2026-05-07 01:27 | 52.92773 | 6.97034 | 37618 ft | 469 kts | 246° |
| 2026-05-07 01:27 | 52.91493 | 6.92143 | 37829 ft | 469 kts | 246° |
| 2026-05-07 01:27 | 52.90192 | 6.87179 | 38017 ft | 469 kts | 246° |
| 2026-05-07 01:28 | 52.88893 | 6.82236 | 38212 ft | 469 kts | 246° |
| 2026-05-07 01:28 | 52.87587 | 6.77278 | 38402 ft | 469 kts | 246° |
| 2026-05-07 01:28 | 52.86282 | 6.72332 | 38594 ft | 469 kts | 246° |
| 2026-05-07 01:28 | 52.84972 | 6.67378 | 38721 ft | 469 kts | 246° |
| 2026-05-07 01:29 | 52.83661 | 6.62433 | 38849 ft | 469 kts | 246° |
| 2026-05-07 01:29 | 52.82347 | 6.57484 | 38962 ft | 469 kts | 246° |
| 2026-05-07 01:29 | 52.81045 | 6.52594 | 39057 ft | 470 kts | 246° |
| 2026-05-07 01:30 | 52.78396 | 6.42676 | 39262 ft | 471 kts | 246° |
| 2026-05-07 01:30 | 52.77068 | 6.37718 | 39390 ft | 471 kts | 246° |
| 2026-05-07 01:30 | 52.75740 | 6.32774 | 39505 ft | 471 kts | 246° |
| 2026-05-07 01:30 | 52.74411 | 6.27833 | 39624 ft | 471 kts | 246° |
| 2026-05-07 01:31 | 52.73078 | 6.22891 | 39734 ft | 471 kts | 245° |
| 2026-05-07 01:31 | 52.70422 | 6.13073 | 39927 ft | 472 kts | 245° |
| 2026-05-07 01:32 | 52.67731 | 6.03170 | 39969 ft | 473 kts | 245° |
| 2026-05-07 01:32 | 52.65032 | 5.93279 | 39975 ft | 474 kts | 245° |
| 2026-05-07 01:33 | 52.62322 | 5.83391 | 39975 ft | 474 kts | 245° |
| 2026-05-07 01:33 | 52.59601 | 5.73501 | 39985 ft | 474 kts | 245° |
| 2026-05-07 01:34 | 52.56885 | 5.63676 | 39986 ft | 474 kts | 245° |
| 2026-05-07 01:34 | 52.54141 | 5.53789 | 39993 ft | 474 kts | 245° |
| 2026-05-07 01:35 | 52.51391 | 5.43923 | 39996 ft | 475 kts | 245° |
| 2026-05-07 01:35 | 52.48648 | 5.34123 | 39994 ft | 475 kts | 245° |
| 2026-05-07 01:36 | 52.45877 | 5.24266 | 39994 ft | 475 kts | 245° |
| 2026-05-07 01:36 | 52.43100 | 5.14430 | 39990 ft | 475 kts | 245° |
| 2026-05-07 01:37 | 52.40312 | 5.04595 | 40004 ft | 475 kts | 245° |
| 2026-05-07 01:37 | 52.37517 | 4.94776 | 40022 ft | 476 kts | 245° |
| 2026-05-07 01:38 | 52.34722 | 4.84997 | 40021 ft | 476 kts | 245° |
| 2026-05-07 01:38 | 52.31906 | 4.75189 | 40021 ft | 476 kts | 245° |
| 2026-05-07 01:39 | 52.29099 | 4.65448 | 39990 ft | 476 kts | 245° |
| 2026-05-07 01:39 | 52.26267 | 4.55665 | 39991 ft | 476 kts | 244° |
| 2026-05-07 01:40 | 52.23426 | 4.45887 | 40004 ft | 476 kts | 244° |
| 2026-05-07 01:40 | 52.20575 | 4.36118 | 40000 ft | 476 kts | 244° |
| 2026-05-07 01:41 | 52.17716 | 4.26362 | 40009 ft | 477 kts | 244° |
| 2026-05-07 01:41 | 52.14861 | 4.16658 | 40010 ft | 477 kts | 244° |
| 2026-05-07 01:42 | 52.11983 | 4.06916 | 40021 ft | 477 kts | 244° |
| 2026-05-07 01:42 | 52.09096 | 3.97184 | 40018 ft | 477 kts | 244° |
| 2026-05-07 01:43 | 52.06202 | 3.87468 | 40022 ft | 477 kts | 244° |
| 2026-05-07 01:43 | 52.03308 | 3.77789 | 40020 ft | 476 kts | 244° |
| 2026-05-07 01:44 | 52.00422 | 3.68178 | 40010 ft | 476 kts | 244° |
| 2026-05-07 01:44 | 51.97509 | 3.58514 | 40007 ft | 476 kts | 244° |
| 2026-05-07 01:45 | 51.94581 | 3.48839 | 40004 ft | 477 kts | 244° |
| 2026-05-07 01:45 | 51.91648 | 3.39189 | 40009 ft | 477 kts | 244° |
| 2026-05-07 01:46 | 51.88728 | 3.29616 | 40007 ft | 476 kts | 244° |
| 2026-05-07 01:46 | 51.85904 | 3.19900 | 40006 ft | 476 kts | 250° |
| 2026-05-07 01:47 | 51.84421 | 3.09488 | 40014 ft | 476 kts | 262° |
| 2026-05-07 01:47 | 51.83668 | 2.98918 | 40012 ft | 476 kts | 263° |
| 2026-05-07 01:48 | 51.83005 | 2.88233 | 40022 ft | 477 kts | 264° |
| 2026-05-07 01:48 | 51.82320 | 2.77557 | 40021 ft | 476 kts | 263° |
| 2026-05-07 01:49 | 51.81610 | 2.66964 | 40022 ft | 476 kts | 263° |
| 2026-05-07 01:49 | 51.80883 | 2.56313 | 40021 ft | 476 kts | 263° |
| 2026-05-07 01:50 | 51.80134 | 2.45675 | 40022 ft | 476 kts | 263° |
| 2026-05-07 01:50 | 51.79381 | 2.35079 | 39504 ft | 473 kts | 263° |
| 2026-05-07 01:50 | 51.79002 | 2.29787 | 38782 ft | 476 kts | 263° |
| 2026-05-07 01:51 | 51.78619 | 2.24469 | 37919 ft | 478 kts | 263° |
| 2026-05-07 01:51 | 51.78243 | 2.19116 | 37066 ft | 479 kts | 264° |
| 2026-05-07 01:51 | 51.77931 | 2.13757 | 36329 ft | 479 kts | 265° |
| 2026-05-07 01:51 | 51.77633 | 2.08478 | 35717 ft | 476 kts | 265° |
| 2026-05-07 01:52 | 51.77327 | 2.03172 | 35081 ft | 474 kts | 265° |
| 2026-05-07 01:52 | 51.77016 | 1.97887 | 34416 ft | 472 kts | 265° |
| 2026-05-07 01:52 | 51.76700 | 1.92599 | 33662 ft | 472 kts | 265° |
| 2026-05-07 01:52 | 51.76381 | 1.87320 | 32898 ft | 471 kts | 265° |
| 2026-05-07 01:53 | 51.76061 | 1.82072 | 32171 ft | 469 kts | 264° |
| 2026-05-07 01:53 | 51.75739 | 1.76840 | 31514 ft | 467 kts | 264° |
| 2026-05-07 01:53 | 51.75418 | 1.71649 | 31004 ft | 461 kts | 264° |
| 2026-05-07 01:53 | 51.75098 | 1.66529 | 30476 ft | 456 kts | 264° |
| 2026-05-07 01:54 | 51.74782 | 1.61514 | 29943 ft | 452 kts | 264° |
| 2026-05-07 01:54 | 51.74463 | 1.56489 | 29398 ft | 446 kts | 264° |
| 2026-05-07 01:54 | 51.74147 | 1.51550 | 28900 ft | 441 kts | 264° |
| 2026-05-07 01:54 | 51.73832 | 1.46641 | 28397 ft | 435 kts | 264° |
| 2026-05-07 01:55 | 51.73519 | 1.41799 | 27907 ft | 430 kts | 264° |
| 2026-05-07 01:55 | 51.73212 | 1.37078 | 27420 ft | 425 kts | 264° |
| 2026-05-07 01:55 | 51.72903 | 1.32371 | 26954 ft | 421 kts | 264° |
| 2026-05-07 01:55 | 51.72595 | 1.27696 | 26487 ft | 416 kts | 264° |
| 2026-05-07 01:56 | 51.72288 | 1.23059 | 25986 ft | 412 kts | 264° |
| 2026-05-07 01:56 | 51.71983 | 1.18488 | 25533 ft | 408 kts | 264° |
| 2026-05-07 01:56 | 51.71678 | 1.13955 | 25072 ft | 406 kts | 264° |
| 2026-05-07 01:56 | 51.71374 | 1.09442 | 24604 ft | 404 kts | 264° |
| 2026-05-07 01:57 | 51.71069 | 1.04945 | 24144 ft | 402 kts | 264° |
| 2026-05-07 01:57 | 51.70763 | 1.00472 | 23682 ft | 400 kts | 264° |
| 2026-05-07 01:57 | 51.70458 | 0.96031 | 23141 ft | 397 kts | 264° |
| 2026-05-07 01:57 | 51.70156 | 0.91616 | 22704 ft | 395 kts | 264° |
| 2026-05-07 01:58 | 51.69850 | 0.87219 | 22246 ft | 394 kts | 264° |
| 2026-05-07 01:58 | 51.69547 | 0.82890 | 21778 ft | 392 kts | 264° |
| 2026-05-07 01:58 | 51.69241 | 0.78547 | 21306 ft | 389 kts | 264° |
| 2026-05-07 01:58 | 51.68936 | 0.74230 | 20842 ft | 386 kts | 264° |
| 2026-05-07 01:59 | 51.68632 | 0.69941 | 20370 ft | 384 kts | 264° |
| 2026-05-07 01:59 | 51.68326 | 0.65623 | 20087 ft | 394 kts | 264° |
| 2026-05-07 01:59 | 51.68008 | 0.61179 | 20042 ft | 402 kts | 264° |
| 2026-05-07 01:59 | 51.67684 | 0.56693 | 20027 ft | 403 kts | 264° |
| 2026-05-07 02:00 | 51.67358 | 0.52214 | 20028 ft | 403 kts | 264° |
| 2026-05-07 02:00 | 51.67033 | 0.47750 | 19617 ft | 398 kts | 264° |
| 2026-05-07 02:00 | 51.66712 | 0.43327 | 18734 ft | 404 kts | 264° |
| 2026-05-07 02:00 | 51.66378 | 0.38808 | 17878 ft | 407 kts | 264° |
| 2026-05-07 02:01 | 51.66040 | 0.34265 | 17087 ft | 407 kts | 264° |
| 2026-05-07 02:01 | 51.65702 | 0.29743 | 16321 ft | 406 kts | 263° |
| 2026-05-07 02:01 | 51.65364 | 0.25240 | 15628 ft | 404 kts | 263° |
| 2026-05-07 02:01 | 51.65027 | 0.20768 | 14974 ft | 401 kts | 263° |
| 2026-05-07 02:02 | 51.64692 | 0.16340 | 14383 ft | 396 kts | 263° |
| 2026-05-07 02:02 | 51.64382 | 0.11946 | 13752 ft | 393 kts | 265° |
| 2026-05-07 02:02 | 51.64151 | 0.07602 | 13180 ft | 386 kts | 266° |
| 2026-05-07 02:02 | 51.63933 | 0.03381 | 12684 ft | 379 kts | 266° |
| 2026-05-07 02:03 | 51.63709 | -0.00807 | 12194 ft | 371 kts | 266° |
| 2026-05-07 02:03 | 51.63484 | -0.04927 | 11703 ft | 364 kts | 265° |
| 2026-05-07 02:03 | 51.63260 | -0.08954 | 11224 ft | 358 kts | 265° |
| 2026-05-07 02:03 | 51.63036 | -0.12931 | 10768 ft | 353 kts | 265° |
| 2026-05-07 02:04 | 51.62817 | -0.16795 | 10592 ft | 338 kts | 265° |
| 2026-05-07 02:04 | 51.62608 | -0.20436 | 10462 ft | 324 kts | 265° |
| 2026-05-07 02:04 | 51.62404 | -0.23971 | 10333 ft | 310 kts | 265° |
| 2026-05-07 02:04 | 51.62208 | -0.27347 | 10197 ft | 297 kts | 265° |
| 2026-05-07 02:05 | 51.62019 | -0.30594 | 10080 ft | 285 kts | 265° |
| 2026-05-07 02:05 | 51.61835 | -0.33740 | 9917 ft | 281 kts | 265° |
| 2026-05-07 02:05 | 51.61651 | -0.36878 | 9605 ft | 283 kts | 265° |
| 2026-05-07 02:05 | 51.61466 | -0.40036 | 9304 ft | 283 kts | 265° |
| 2026-05-07 02:06 | 51.61279 | -0.43181 | 9011 ft | 281 kts | 265° |
| 2026-05-07 02:06 | 51.61093 | -0.46308 | 8723 ft | 280 kts | 265° |
| 2026-05-07 02:06 | 51.60909 | -0.49380 | 8433 ft | 279 kts | 264° |
| 2026-05-07 02:06 | 51.60723 | -0.52480 | 8147 ft | 278 kts | 264° |
| 2026-05-07 02:07 | 51.60537 | -0.55566 | 7861 ft | 276 kts | 264° |
| 2026-05-07 02:07 | 51.60164 | -0.61699 | 7287 ft | 274 kts | 264° |
| 2026-05-07 02:07 | 51.59977 | -0.64747 | 7076 ft | 272 kts | 263° |
| 2026-05-07 02:08 | 51.59793 | -0.67779 | 7042 ft | 273 kts | 263° |
| 2026-05-07 02:08 | 51.59595 | -0.70812 | 7025 ft | 272 kts | 262° |
| 2026-05-07 02:08 | 51.59058 | -0.73676 | 6681 ft | 264 kts | 239° |
| 2026-05-07 02:08 | 51.57862 | -0.75767 | 6319 ft | 250 kts | 212° |
| 2026-05-07 02:09 | 51.56334 | -0.76883 | 6042 ft | 236 kts | 198° |
| 2026-05-07 02:09 | 51.54782 | -0.77654 | 5584 ft | 232 kts | 197° |
| 2026-05-07 02:09 | 51.53237 | -0.78380 | 5116 ft | 229 kts | 195° |
| 2026-05-07 02:09 | 51.51667 | -0.78687 | 4623 ft | 228 kts | 176° |
| 2026-05-07 02:10 | 51.50156 | -0.78024 | 4171 ft | 225 kts | 152° |
| 2026-05-07 02:10 | 51.48865 | -0.76672 | 3812 ft | 219 kts | 143° |
| 2026-05-07 02:10 | 51.47870 | -0.74907 | 3490 ft | 211 kts | 115° |
| 2026-05-07 02:10 | 51.47602 | -0.72684 | 3211 ft | 199 kts | 88° |
| 2026-05-07 02:11 | 51.47706 | -0.70526 | 2930 ft | 190 kts | 85° |
| 2026-05-07 02:11 | 51.47693 | -0.68443 | 2619 ft | 183 kts | 93° |
| 2026-05-07 02:11 | 51.47678 | -0.66475 | 2369 ft | 175 kts | 89° |
| 2026-05-07 02:11 | 51.47695 | -0.64586 | 2135 ft | 164 kts | 89° |
| 2026-05-07 02:12 | 51.47700 | -0.62773 | 1911 ft | 161 kts | 90° |
| 2026-05-07 02:12 | 51.47704 | -0.60984 | 1689 ft | 160 kts | 90° |
| 2026-05-07 02:12 | 51.47710 | -0.59239 | 1468 ft | 153 kts | 89° |
| 2026-05-07 02:12 | 51.47715 | -0.57580 | 1253 ft | 144 kts | 89° |
| 2026-05-07 02:13 | 51.47721 | -0.55986 | 1055 ft | 142 kts | 89° |
| 2026-05-07 02:13 | 51.47727 | -0.54393 | 845 ft | 143 kts | 89° |
| 2026-05-07 02:13 | 51.47733 | -0.52803 | 660 ft | 144 kts | 89° |
| 2026-05-07 02:13 | 51.47737 | -0.51199 | 463 ft | 144 kts | 89° |
| 2026-05-07 02:14 | 51.47747 | -0.49600 | 268 ft | 143 kts | 88° |
| 2026-05-07 02:14 | 51.47755 | -0.48002 | 100 ft | 143 kts | 88° |
| 2026-05-07 02:14 | 51.47759 | -0.46573 | 98 ft | 100 kts | 89° |
| 2026-05-07 02:14 | 51.47760 | -0.45826 | 93 ft | 34 kts | 90° |
| 2026-05-07 02:15 | 51.47761 | -0.45636 | 93 ft | 20 kts | 90° |
| 2026-05-07 02:15 | 51.47738 | -0.45492 | 96 ft | 12 kts | 130° |
| 2026-05-07 02:15 | 51.47663 | -0.45467 | 94 ft | 12 kts | 180° |
| 2026-05-07 02:15 | 51.47576 | -0.45467 | 92 ft | 10 kts | 180° |
| 2026-05-07 02:16 | 51.47520 | -0.45517 | 97 ft | 10 kts | 240° |
| 2026-05-07 02:16 | 51.47509 | -0.45613 | 96 ft | 9 kts | 267° |
| 2026-05-07 02:16 | 51.47510 | -0.45685 | 96 ft | 10 kts | 272° |
| 2026-05-07 02:16 | 51.47517 | -0.45808 | 96 ft | 11 kts | 274° |
| 2026-05-07 02:17 | 51.47518 | -0.45902 | 94 ft | 8 kts | 270° |
| 2026-05-07 02:17 | 51.47518 | -0.45987 | 94 ft | 8 kts | 270° |
| 2026-05-07 02:17 | 51.47518 | -0.46089 | 92 ft | 10 kts | 269° |
| 2026-05-07 02:17 | 51.47517 | -0.46209 | 92 ft | 10 kts | 269° |
| 2026-05-07 02:18 | 51.47516 | -0.46335 | 95 ft | 13 kts | 269° |
| 2026-05-07 02:18 | 51.47516 | -0.46449 | 95 ft | 11 kts | 269° |
| 2026-05-07 02:18 | 51.47515 | -0.46580 | 92 ft | 13 kts | 269° |
| 2026-05-07 02:18 | 51.47515 | -0.46670 | 92 ft | 7 kts | 270° |
| 2026-05-07 02:19 | 51.47503 | -0.46734 | 95 ft | 5 kts | 230° |
| 2026-05-07 02:19 | 51.47468 | -0.46751 | 97 ft | 6 kts | 181° |
| 2026-05-07 02:19 | 51.47432 | -0.46719 | 96 ft | 6 kts | 135° |
| 2026-05-07 02:19 | 51.47422 | -0.46682 | 95 ft | 2 kts | 112° |
| 2026-05-07 02:20 | 51.47413 | -0.46653 | 97 ft | 4 kts | 119° |
| 2026-05-07 02:20 | 51.47401 | -0.46618 | 96 ft | 3 kts | 118° |
| 2026-05-07 02:20 | 51.47393 | -0.46595 | 96 ft | 0 kts | 119° |